sensor_id;sensor_type;location;lat;lon;timestamp;pressure;altitude;pressure_sealevel;temperature;humidity
64876;BME280;51369;49.862;9.908;2022-11-23T00:00:20;96977.13;;;5.36;82.58
64876;BME280;51369;49.862;9.908;2022-11-23T00:02:46;96973.59;;;5.35;82.73
64876;BME280;51369;49.862;9.908;2022-11-23T00:05:11;96972.72;;;5.35;83.23
64876;BME280;51369;49.862;9.908;2022-11-23T00:07:36;96972.72;;;5.35;83.30
64876;BME280;51369;49.862;9.908;2022-11-23T00:10:02;96973.53;;;5.37;83.49
64876;BME280;51369;49.862;9.908;2022-11-23T00:12:27;96968.09;;;5.38;84.18
64876;BME280;51369;49.862;9.908;2022-11-23T00:14:53;96962.75;;;5.38;84.39
64876;BME280;51369;49.862;9.908;2022-11-23T00:17:18;96969.78;;;5.41;84.12
64876;BME280;51369;49.862;9.908;2022-11-23T00:19:44;96975.00;;;5.44;83.99
64876;BME280;51369;49.862;9.908;2022-11-23T00:22:09;96968.56;;;5.48;84.70
64876;BME280;51369;49.862;9.908;2022-11-23T00:24:34;96963.88;;;5.53;84.44
64876;BME280;51369;49.862;9.908;2022-11-23T00:27:00;96957.38;;;5.59;84.30
64876;BME280;51369;49.862;9.908;2022-11-23T00:29:25;96961.59;;;5.64;85.04
64876;BME280;51369;49.862;9.908;2022-11-23T00:31:51;96962.31;;;5.68;84.99
64876;BME280;51369;49.862;9.908;2022-11-23T00:34:17;96958.69;;;5.69;84.46
64876;BME280;51369;49.862;9.908;2022-11-23T00:36:42;96966.66;;;5.70;84.16
64876;BME280;51369;49.862;9.908;2022-11-23T00:39:07;96970.94;;;5.74;84.31
64876;BME280;51369;49.862;9.908;2022-11-23T00:41:33;96977.00;;;5.78;84.20
64876;BME280;51369;49.862;9.908;2022-11-23T00:44:00;96970.56;;;5.82;84.60
64876;BME280;51369;49.862;9.908;2022-11-23T00:46:26;96973.84;;;5.88;84.70
64876;BME280;51369;49.862;9.908;2022-11-23T00:48:54;96971.06;;;5.92;84.53
64876;BME280;51369;49.862;9.908;2022-11-23T00:51:31;96973.72;;;5.92;84.32
64876;BME280;51369;49.862;9.908;2022-11-23T00:53:59;96968.38;;;5.92;84.23
64876;BME280;51369;49.862;9.908;2022-11-23T00:56:26;96979.19;;;5.88;83.21
64876;BME280;51369;49.862;9.908;2022-11-23T00:58:54;96964.44;;;5.80;83.20
64876;BME280;51369;49.862;9.908;2022-11-23T01:01:22;96971.22;;;5.68;81.99
64876;BME280;51369;49.862;9.908;2022-11-23T01:03:50;96978.06;;;5.55;82.14
64876;BME280;51369;49.862;9.908;2022-11-23T01:06:36;96985.50;;;5.48;82.29
64876;BME280;51369;49.862;9.908;2022-11-23T01:09:06;96985.97;;;5.38;82.88
64876;BME280;51369;49.862;9.908;2022-11-23T01:11:33;96984.31;;;5.35;82.21
64876;BME280;51369;49.862;9.908;2022-11-23T01:13:59;96985.31;;;5.33;82.92
64876;BME280;51369;49.862;9.908;2022-11-23T01:16:27;96982.84;;;5.28;82.14
64876;BME280;51369;49.862;9.908;2022-11-23T01:18:57;96986.50;;;5.26;82.91
64876;BME280;51369;49.862;9.908;2022-11-23T01:21:26;96980.34;;;5.23;83.35
64876;BME280;51369;49.862;9.908;2022-11-23T01:23:52;96981.28;;;5.22;82.84
64876;BME280;51369;49.862;9.908;2022-11-23T01:26:18;96988.50;;;5.20;82.71
64876;BME280;51369;49.862;9.908;2022-11-23T01:28:43;96981.53;;;5.18;82.74
64876;BME280;51369;49.862;9.908;2022-11-23T01:31:12;96986.22;;;5.13;82.62
64876;BME280;51369;49.862;9.908;2022-11-23T01:33:38;96990.88;;;5.08;82.64
64876;BME280;51369;49.862;9.908;2022-11-23T01:36:09;96991.16;;;5.02;82.50
64876;BME280;51369;49.862;9.908;2022-11-23T01:38:34;96989.47;;;4.99;82.37
64876;BME280;51369;49.862;9.908;2022-11-23T01:41:00;96992.34;;;4.95;82.87
64876;BME280;51369;49.862;9.908;2022-11-23T01:43:25;96995.16;;;4.92;82.30
64876;BME280;51369;49.862;9.908;2022-11-23T01:48:24;96997.47;;;4.79;82.60
64876;BME280;51369;49.862;9.908;2022-11-23T01:50:51;97014.56;;;4.75;81.61
64876;BME280;51369;49.862;9.908;2022-11-23T01:53:19;97012.16;;;4.69;82.29
64876;BME280;51369;49.862;9.908;2022-11-23T01:55:48;97011.53;;;4.62;82.52
64876;BME280;51369;49.862;9.908;2022-11-23T01:58:17;97017.13;;;4.56;81.85
64876;BME280;51369;49.862;9.908;2022-11-23T02:00:45;97026.13;;;4.53;82.09
64876;BME280;51369;49.862;9.908;2022-11-23T02:03:12;97020.97;;;4.49;81.93
64876;BME280;51369;49.862;9.908;2022-11-23T02:05:42;97024.69;;;4.45;82.38
64876;BME280;51369;49.862;9.908;2022-11-23T02:08:08;97028.25;;;4.45;83.06
64876;BME280;51369;49.862;9.908;2022-11-23T02:10:35;97028.31;;;4.44;82.74
64876;BME280;51369;49.862;9.908;2022-11-23T02:13:03;97029.97;;;4.46;83.97
64876;BME280;51369;49.862;9.908;2022-11-23T02:15:30;97024.56;;;4.48;82.98
64876;BME280;51369;49.862;9.908;2022-11-23T02:17:57;97028.94;;;4.50;84.00
64876;BME280;51369;49.862;9.908;2022-11-23T02:20:24;97031.47;;;4.53;83.22
64876;BME280;51369;49.862;9.908;2022-11-23T02:25:32;97022.34;;;4.59;83.98
64876;BME280;51369;49.862;9.908;2022-11-23T02:27:59;97033.72;;;4.64;83.64
64876;BME280;51369;49.862;9.908;2022-11-23T02:30:26;97024.66;;;4.68;84.56
64876;BME280;51369;49.862;9.908;2022-11-23T02:32:52;97029.81;;;4.73;84.36
64876;BME280;51369;49.862;9.908;2022-11-23T02:35:18;97034.09;;;4.77;84.52
64876;BME280;51369;49.862;9.908;2022-11-23T02:37:43;97022.34;;;4.81;84.43
64876;BME280;51369;49.862;9.908;2022-11-23T02:40:19;97039.13;;;4.84;84.79
64876;BME280;51369;49.862;9.908;2022-11-23T02:42:49;97027.31;;;4.90;84.18
64876;BME280;51369;49.862;9.908;2022-11-23T02:45:22;97035.19;;;4.93;84.12
64876;BME280;51369;49.862;9.908;2022-11-23T02:47:51;97034.13;;;4.97;83.88
64876;BME280;51369;49.862;9.908;2022-11-23T02:50:16;97031.34;;;5.00;84.23
64876;BME280;51369;49.862;9.908;2022-11-23T02:52:42;97039.28;;;5.02;83.81
64876;BME280;51369;49.862;9.908;2022-11-23T02:55:07;97042.78;;;5.04;84.56
64876;BME280;51369;49.862;9.908;2022-11-23T02:57:34;97043.56;;;5.06;83.92
64876;BME280;51369;49.862;9.908;2022-11-23T03:00:00;97035.50;;;5.07;84.26
64876;BME280;51369;49.862;9.908;2022-11-23T03:02:25;97046.94;;;5.11;83.63
64876;BME280;51369;49.862;9.908;2022-11-23T03:04:52;97044.19;;;5.12;84.37
64876;BME280;51369;49.862;9.908;2022-11-23T03:07:18;97045.00;;;5.14;83.54
64876;BME280;51369;49.862;9.908;2022-11-23T03:09:45;97051.16;;;5.16;83.97
64876;BME280;51369;49.862;9.908;2022-11-23T03:12:11;97047.53;;;5.17;84.40
64876;BME280;51369;49.862;9.908;2022-11-23T03:14:37;97041.19;;;5.20;83.72
64876;BME280;51369;49.862;9.908;2022-11-23T03:17:03;97044.63;;;5.22;84.34
64876;BME280;51369;49.862;9.908;2022-11-23T03:19:34;97051.66;;;5.24;84.18
64876;BME280;51369;49.862;9.908;2022-11-23T03:22:00;97044.44;;;5.27;84.25
64876;BME280;51369;49.862;9.908;2022-11-23T03:24:29;97047.91;;;5.29;84.11
64876;BME280;51369;49.862;9.908;2022-11-23T03:26:55;97044.97;;;5.35;84.06
64876;BME280;51369;49.862;9.908;2022-11-23T03:29:21;97049.31;;;5.37;84.13
64876;BME280;51369;49.862;9.908;2022-11-23T03:31:54;97053.63;;;5.41;84.15
64876;BME280;51369;49.862;9.908;2022-11-23T03:34:21;97057.91;;;5.45;83.77
64876;BME280;51369;49.862;9.908;2022-11-23T03:36:46;97055.16;;;5.47;84.40
64876;BME280;51369;49.862;9.908;2022-11-23T03:39:12;97043.38;;;5.51;83.76
64876;BME280;51369;49.862;9.908;2022-11-23T03:42:12;97041.44;;;5.54;83.87
64876;BME280;51369;49.862;9.908;2022-11-23T03:44:38;97037.81;;;5.55;84.12
64876;BME280;51369;49.862;9.908;2022-11-23T03:47:04;97043.97;;;5.57;83.78
64876;BME280;51369;49.862;9.908;2022-11-23T03:49:32;97038.50;;;5.61;84.50
64876;BME280;51369;49.862;9.908;2022-11-23T03:51:57;97042.84;;;5.63;83.81
64876;BME280;51369;49.862;9.908;2022-11-23T03:54:25;97032.94;;;5.65;84.13
64876;BME280;51369;49.862;9.908;2022-11-23T03:56:50;97039.88;;;5.69;83.68
64876;BME280;51369;49.862;9.908;2022-11-23T03:59:16;97038.00;;;5.71;84.11
64876;BME280;51369;49.862;9.908;2022-11-23T04:01:42;97028.97;;;5.74;83.53
64876;BME280;51369;49.862;9.908;2022-11-23T04:04:14;97019.06;;;5.76;83.54
64876;BME280;51369;49.862;9.908;2022-11-23T04:06:57;97030.56;;;5.78;83.82
64876;BME280;51369;49.862;9.908;2022-11-23T04:09:27;97024.22;;;5.80;82.90
64876;BME280;51369;49.862;9.908;2022-11-23T04:12:02;97024.13;;;5.82;83.33
64876;BME280;51369;49.862;9.908;2022-11-23T04:14:28;97025.88;;;5.83;83.25
64876;BME280;51369;49.862;9.908;2022-11-23T04:16:53;97025.88;;;5.83;83.26
64876;BME280;51369;49.862;9.908;2022-11-23T04:19:18;97029.44;;;5.83;83.31
64876;BME280;51369;49.862;9.908;2022-11-23T04:21:44;97027.63;;;5.84;83.32
64876;BME280;51369;49.862;9.908;2022-11-23T04:24:09;97028.56;;;5.83;83.61
64876;BME280;51369;49.862;9.908;2022-11-23T04:26:36;97027.69;;;5.82;82.82
64876;BME280;51369;49.862;9.908;2022-11-23T04:29:01;97028.63;;;5.81;83.49
64876;BME280;51369;49.862;9.908;2022-11-23T04:31:28;97032.25;;;5.80;82.69
64876;BME280;51369;49.862;9.908;2022-11-23T04:34:05;97034.91;;;5.80;83.57
64876;BME280;51369;49.862;9.908;2022-11-23T04:36:30;97026.88;;;5.80;83.07
64876;BME280;51369;49.862;9.908;2022-11-23T04:38:56;97028.63;;;5.81;83.35
64876;BME280;51369;49.862;9.908;2022-11-23T04:41:32;97025.94;;;5.81;83.06
64876;BME280;51369;49.862;9.908;2022-11-23T04:43:58;97026.88;;;5.80;83.22
64876;BME280;51369;49.862;9.908;2022-11-23T04:46:24;97034.91;;;5.80;83.43
64876;BME280;51369;49.862;9.908;2022-11-23T04:48:51;97025.94;;;5.81;83.43
64876;BME280;51369;49.862;9.908;2022-11-23T04:51:16;97031.22;;;5.83;83.67
64876;BME280;51369;49.862;9.908;2022-11-23T04:53:42;97035.66;;;5.84;83.25
64876;BME280;51369;49.862;9.908;2022-11-23T04:56:08;97022.19;;;5.85;83.55
64876;BME280;51369;49.862;9.908;2022-11-23T04:58:37;97032.84;;;5.87;83.42
64876;BME280;51369;49.862;9.908;2022-11-23T05:01:03;97028.41;;;5.86;83.28
64876;BME280;51369;49.862;9.908;2022-11-23T05:03:31;97034.66;;;5.86;82.91
64876;BME280;51369;49.862;9.908;2022-11-23T05:06:04;97039.06;;;5.87;83.56
64876;BME280;51369;49.862;9.908;2022-11-23T05:08:37;97031.03;;;5.87;83.17
64876;BME280;51369;49.862;9.908;2022-11-23T05:11:24;97026.50;;;5.90;83.21
64876;BME280;51369;49.862;9.908;2022-11-23T05:13:51;97030.91;;;5.91;82.68
64876;BME280;51369;49.862;9.908;2022-11-23T05:16:16;97036.22;;;5.92;83.38
64876;BME280;51369;49.862;9.908;2022-11-23T05:18:42;97031.78;;;5.91;83.06
64876;BME280;51369;49.862;9.908;2022-11-23T05:21:07;97029.03;;;5.93;83.00
64876;BME280;51369;49.862;9.908;2022-11-23T05:23:33;97021.00;;;5.93;83.31
64876;BME280;51369;49.862;9.908;2022-11-23T05:25:59;97014.78;;;5.92;82.91
64876;BME280;51369;49.862;9.908;2022-11-23T05:28:24;97033.47;;;5.94;83.29
64876;BME280;51369;49.862;9.908;2022-11-23T05:30:49;97030.72;;;5.95;82.74
64876;BME280;51369;49.862;9.908;2022-11-23T05:33:15;97027.97;;;5.97;82.99
64876;BME280;51369;49.862;9.908;2022-11-23T05:35:42;97029.69;;;5.98;82.68
64876;BME280;51369;49.862;9.908;2022-11-23T05:38:07;97027.03;;;5.98;82.50
64876;BME280;51369;49.862;9.908;2022-11-23T05:40:33;97025.22;;;5.98;82.90
64876;BME280;51369;49.862;9.908;2022-11-23T05:43:01;97028.75;;;5.99;82.42
64876;BME280;51369;49.862;9.908;2022-11-23T05:45:27;97022.47;;;6.00;82.35
64876;BME280;51369;49.862;9.908;2022-11-23T05:47:57;97026.00;;;6.00;82.83
64876;BME280;51369;49.862;9.908;2022-11-23T05:50:41;97033.91;;;6.03;82.35
64876;BME280;51369;49.862;9.908;2022-11-23T05:53:24;97032.09;;;6.04;82.52
64876;BME280;51369;49.862;9.908;2022-11-23T05:55:59;97029.41;;;6.04;82.53
64876;BME280;51369;49.862;9.908;2022-11-23T05:58:27;97032.91;;;6.06;82.50
64876;BME280;51369;49.862;9.908;2022-11-23T06:00:59;97040.00;;;6.07;83.05
64876;BME280;51369;49.862;9.908;2022-11-23T06:03:27;97038.19;;;6.07;82.55
64876;BME280;51369;49.862;9.908;2022-11-23T06:05:53;97027.47;;;6.07;82.99
64876;BME280;51369;49.862;9.908;2022-11-23T06:08:25;97025.81;;;6.05;82.85
64876;BME280;51369;49.862;9.908;2022-11-23T06:10:51;97023.13;;;6.05;82.61
64876;BME280;51369;49.862;9.908;2022-11-23T06:13:16;97024.00;;;6.05;82.35
64876;BME280;51369;49.862;9.908;2022-11-23T06:15:43;97024.78;;;6.07;82.54
64876;BME280;51369;49.862;9.908;2022-11-23T06:18:08;97022.19;;;6.06;82.72
64876;BME280;51369;49.862;9.908;2022-11-23T06:20:42;97023.06;;;6.06;82.72
64876;BME280;51369;49.862;9.908;2022-11-23T06:23:07;97023.84;;;6.08;82.67
64876;BME280;51369;49.862;9.908;2022-11-23T06:25:33;97022.91;;;6.09;82.62
64876;BME280;51369;49.862;9.908;2022-11-23T06:28:20;97029.13;;;6.10;82.16
64876;BME280;51369;49.862;9.908;2022-11-23T06:30:47;97030.88;;;6.11;82.41
64876;BME280;51369;49.862;9.908;2022-11-23T06:33:13;97027.31;;;6.10;82.63
64876;BME280;51369;49.862;9.908;2022-11-23T06:35:56;97026.53;;;6.08;82.37
64876;BME280;51369;49.862;9.908;2022-11-23T06:38:24;97037.19;;;6.10;82.69
64876;BME280;51369;49.862;9.908;2022-11-23T06:40:59;97029.13;;;6.10;82.87
64876;BME280;51369;49.862;9.908;2022-11-23T06:43:25;97029.13;;;6.10;82.76
64876;BME280;51369;49.862;9.908;2022-11-23T06:45:51;97032.69;;;6.10;82.68
64876;BME280;51369;49.862;9.908;2022-11-23T06:48:16;97038.91;;;6.11;82.81
64876;BME280;51369;49.862;9.908;2022-11-23T06:50:45;97031.75;;;6.11;82.94
64876;BME280;51369;49.862;9.908;2022-11-23T06:53:11;97034.34;;;6.13;82.42
64876;BME280;51369;49.862;9.908;2022-11-23T06:55:47;97045.88;;;6.15;82.54
64876;BME280;51369;49.862;9.908;2022-11-23T06:58:15;97042.31;;;6.14;82.69
64876;BME280;51369;49.862;9.908;2022-11-23T07:00:42;97045.78;;;6.16;82.50
64876;BME280;51369;49.862;9.908;2022-11-23T07:03:18;97052.03;;;6.17;82.50
64876;BME280;51369;49.862;9.908;2022-11-23T07:05:44;97042.09;;;6.19;82.90
64876;BME280;51369;49.862;9.908;2022-11-23T07:08:10;97052.75;;;6.20;82.86
64876;BME280;51369;49.862;9.908;2022-11-23T07:10:35;97055.44;;;6.20;82.53
64876;BME280;51369;49.862;9.908;2022-11-23T07:13:06;97056.22;;;6.23;82.98
64876;BME280;51369;49.862;9.908;2022-11-23T07:15:33;97056.31;;;6.21;82.94
64876;BME280;51369;49.862;9.908;2022-11-23T07:18:00;97059.72;;;6.25;82.61
64876;BME280;51369;49.862;9.908;2022-11-23T07:20:25;97050.72;;;6.26;82.69
64876;BME280;51369;49.862;9.908;2022-11-23T07:23:03;97064.06;;;6.27;82.78
64876;BME280;51369;49.862;9.908;2022-11-23T07:25:29;97062.09;;;6.31;82.28
64876;BME280;51369;49.862;9.908;2022-11-23T07:27:59;97063.91;;;6.30;82.53
64876;BME280;51369;49.862;9.908;2022-11-23T07:30:27;97064.66;;;6.34;82.82
64876;BME280;51369;49.862;9.908;2022-11-23T07:32:53;97066.38;;;6.35;82.74
64876;BME280;51369;49.862;9.908;2022-11-23T07:35:19;97064.50;;;6.37;82.57
64876;BME280;51369;49.862;9.908;2022-11-23T07:37:45;97064.34;;;6.40;83.21
64876;BME280;51369;49.862;9.908;2022-11-23T07:40:11;97068.78;;;6.41;82.66
64876;BME280;51369;49.862;9.908;2022-11-23T07:42:37;97075.81;;;6.43;83.02
64876;BME280;51369;49.862;9.908;2022-11-23T07:45:06;97071.25;;;6.45;82.74
64876;BME280;51369;49.862;9.908;2022-11-23T07:47:35;97072.03;;;6.47;82.84
64876;BME280;51369;49.862;9.908;2022-11-23T07:50:00;97067.47;;;6.49;82.86
64876;BME280;51369;49.862;9.908;2022-11-23T07:52:26;97077.25;;;6.50;82.87
64876;BME280;51369;49.862;9.908;2022-11-23T07:54:51;97070.94;;;6.51;82.79
64876;BME280;51369;49.862;9.908;2022-11-23T07:57:16;97075.22;;;6.56;82.39
64876;BME280;51369;49.862;9.908;2022-11-23T07:59:42;97067.13;;;6.57;82.54
64876;BME280;51369;49.862;9.908;2022-11-23T08:02:13;97066.09;;;6.60;83.15
64876;BME280;51369;49.862;9.908;2022-11-23T08:04:38;97069.50;;;6.63;82.96
64876;BME280;51369;49.862;9.908;2022-11-23T08:07:04;97070.16;;;6.68;82.73
64876;BME280;51369;49.862;9.908;2022-11-23T08:09:30;97068.13;;;6.73;83.16
64876;BME280;51369;49.862;9.908;2022-11-23T08:11:55;97066.09;;;6.78;83.41
64876;BME280;51369;49.862;9.908;2022-11-23T08:14:21;97068.53;;;6.83;83.14
64876;BME280;51369;49.862;9.908;2022-11-23T08:16:50;97068.38;;;6.86;83.47
64876;BME280;51369;49.862;9.908;2022-11-23T08:19:16;97070.84;;;6.91;83.41
64876;BME280;51369;49.862;9.908;2022-11-23T08:21:42;97068.84;;;6.94;83.53
64876;BME280;51369;49.862;9.908;2022-11-23T08:24:07;97079.34;;;6.99;83.16
64876;BME280;51369;49.862;9.908;2022-11-23T08:26:33;97074.72;;;7.02;83.45
64876;BME280;51369;49.862;9.908;2022-11-23T08:28:58;97071.72;;;7.08;83.38
64876;BME280;51369;49.862;9.908;2022-11-23T08:31:24;97074.19;;;7.13;83.08
64876;BME280;51369;49.862;9.908;2022-11-23T08:33:49;97077.50;;;7.18;82.98
64876;BME280;51369;49.862;9.908;2022-11-23T08:36:14;97075.53;;;7.22;82.78
64876;BME280;51369;49.862;9.908;2022-11-23T08:38:40;97078.00;;;7.26;82.74
64876;BME280;51369;49.862;9.908;2022-11-23T08:41:05;97084.94;;;7.30;82.59
64876;BME280;51369;49.862;9.908;2022-11-23T08:43:31;97080.22;;;7.35;82.55
64876;BME280;51369;49.862;9.908;2022-11-23T08:45:57;97084.41;;;7.41;82.47
64876;BME280;51369;49.862;9.908;2022-11-23T08:48:24;97090.41;;;7.46;82.56
64876;BME280;51369;49.862;9.908;2022-11-23T08:50:50;97089.31;;;7.50;82.31
64876;BME280;51369;49.862;9.908;2022-11-23T08:53:16;97087.41;;;7.52;82.29
64876;BME280;51369;49.862;9.908;2022-11-23T08:55:42;97083.63;;;7.56;82.68
64876;BME280;51369;49.862;9.908;2022-11-23T08:58:07;97091.44;;;7.61;82.25
64876;BME280;51369;49.862;9.908;2022-11-23T09:00:33;97085.84;;;7.65;81.71
64876;BME280;51369;49.862;9.908;2022-11-23T09:03:00;97090.19;;;7.68;81.86
64876;BME280;51369;49.862;9.908;2022-11-23T09:05:26;97087.25;;;7.72;82.16
64876;BME280;51369;49.862;9.908;2022-11-23T09:07:52;97086.16;;;7.76;82.02
64876;BME280;51369;49.862;9.908;2022-11-23T09:10:18;97094.06;;;7.79;81.09
64876;BME280;51369;49.862;9.908;2022-11-23T09:12:43;97093.09;;;7.80;81.35
64876;BME280;51369;49.862;9.908;2022-11-23T09:15:09;97097.38;;;7.84;81.29
64876;BME280;51369;49.862;9.908;2022-11-23T09:17:35;97090.97;;;7.87;80.97
64876;BME280;51369;49.862;9.908;2022-11-23T09:20:00;97091.75;;;7.89;80.92
64876;BME280;51369;49.862;9.908;2022-11-23T09:22:26;97090.72;;;7.92;80.85
64876;BME280;51369;49.862;9.908;2022-11-23T09:24:52;97093.34;;;7.93;80.75
64876;BME280;51369;49.862;9.908;2022-11-23T09:27:18;97092.22;;;7.97;80.63
64876;BME280;51369;49.862;9.908;2022-11-23T09:29:43;97096.56;;;8.00;80.84
64876;BME280;51369;49.862;9.908;2022-11-23T09:32:09;97093.72;;;8.03;80.73
64876;BME280;51369;49.862;9.908;2022-11-23T09:34:34;97090.88;;;8.06;80.72
64876;BME280;51369;49.862;9.908;2022-11-23T09:36:59;97094.25;;;8.09;80.68
64876;BME280;51369;49.862;9.908;2022-11-23T09:39:25;97099.41;;;8.14;81.21
64876;BME280;51369;49.862;9.908;2022-11-23T09:42:16;97100.25;;;8.14;80.78
64876;BME280;51369;49.862;9.908;2022-11-23T09:45:07;97101.75;;;8.20;80.25
64876;BME280;51369;49.862;9.908;2022-11-23T09:47:45;97098.91;;;8.23;80.83
64876;BME280;51369;49.862;9.908;2022-11-23T09:50:22;97103.16;;;8.27;80.65
64876;BME280;51369;49.862;9.908;2022-11-23T09:52:50;97103.94;;;8.29;80.18
64876;BME280;51369;49.862;9.908;2022-11-23T09:55:26;97100.22;;;8.32;80.22
64876;BME280;51369;49.862;9.908;2022-11-23T09:57:59;97103.56;;;8.37;80.61
64876;BME280;51369;49.862;9.908;2022-11-23T10:00:26;97095.34;;;8.40;79.83
64876;BME280;51369;49.862;9.908;2022-11-23T10:02:54;97103.16;;;8.44;80.27
64876;BME280;51369;49.862;9.908;2022-11-23T10:05:22;97096.66;;;8.48;80.10
64876;BME280;51369;49.862;9.908;2022-11-23T10:16:28;97090.59;;;8.61;79.68
64876;BME280;51369;49.862;9.908;2022-11-23T10:19:52;97098.31;;;8.67;80.25
64876;BME280;51369;49.862;9.908;2022-11-23T10:22:03;97095.44;;;8.70;79.68
64876;BME280;51369;49.862;9.908;2022-11-23T10:24:37;97089.72;;;8.76;80.02
64876;BME280;51369;49.862;9.908;2022-11-23T10:27:15;97093.97;;;8.80;79.93
64876;BME280;51369;49.862;9.908;2022-11-23T10:29:42;97088.41;;;8.83;79.58
64876;BME280;51369;49.862;9.908;2022-11-23T10:32:20;97087.38;;;8.86;79.98
64876;BME280;51369;49.862;9.908;2022-11-23T10:34:57;97079.81;;;8.92;79.42
64876;BME280;51369;49.862;9.908;2022-11-23T10:37:25;97087.56;;;8.98;79.79
64876;BME280;51369;49.862;9.908;2022-11-23T10:39:50;97074.00;;;9.00;79.40
64876;BME280;51369;49.862;9.908;2022-11-23T10:42:23;97077.38;;;9.03;78.55
64876;BME280;51369;49.862;9.908;2022-11-23T10:44:50;97073.66;;;9.06;78.40
64876;BME280;51369;49.862;9.908;2022-11-23T10:47:33;97069.13;;;9.06;78.92
64876;BME280;51369;49.862;9.908;2022-11-23T10:49:59;97074.16;;;9.12;78.12
64876;BME280;51369;49.862;9.908;2022-11-23T10:52:30;97079.38;;;9.16;78.14
64876;BME280;51369;49.862;9.908;2022-11-23T10:55:00;97072.88;;;9.20;78.47
64876;BME280;51369;49.862;9.908;2022-11-23T11:07:45;97075.13;;;9.57;77.92
64876;BME280;51369;49.862;9.908;2022-11-23T11:12:56;97068.91;;;9.71;77.11
64876;BME280;51369;49.862;9.908;2022-11-23T11:15:21;97067.69;;;9.76;77.22
64876;BME280;51369;49.862;9.908;2022-11-23T11:17:54;97069.25;;;9.81;76.55
64876;BME280;51369;49.862;9.908;2022-11-23T11:20:31;97055.38;;;9.87;75.76
64876;BME280;51369;49.862;9.908;2022-11-23T11:23:15;97044.13;;;9.94;76.24
64876;BME280;51369;49.862;9.908;2022-11-23T11:25:41;97048.09;;;10.03;75.82
64876;BME280;51369;49.862;9.908;2022-11-23T11:28:27;97048.97;;;10.03;75.66
64876;BME280;51369;49.862;9.908;2022-11-23T11:34:34;97048.09;;;10.03;75.37
64876;BME280;51369;49.862;9.908;2022-11-23T11:36:59;97042.72;;;10.03;74.39
64876;BME280;51369;49.862;9.908;2022-11-23T11:39:47;97042.03;;;9.99;75.29
64876;BME280;51369;49.862;9.908;2022-11-23T11:42:22;97038.47;;;9.99;74.66
64876;BME280;51369;49.862;9.908;2022-11-23T11:44:54;97036.25;;;9.91;75.00
64876;BME280;51369;49.862;9.908;2022-11-23T11:47:28;97040.94;;;9.88;75.14
64876;BME280;51369;49.862;9.908;2022-11-23T11:49:57;97042.78;;;9.87;74.84
64876;BME280;51369;49.862;9.908;2022-11-23T11:52:28;97035.56;;;9.88;75.60
64876;BME280;51369;49.862;9.908;2022-11-23T11:57:31;97037.19;;;9.90;74.91
64876;BME280;51369;49.862;9.908;2022-11-23T12:00:00;97033.44;;;9.93;74.82
64876;BME280;51369;49.862;9.908;2022-11-23T12:02:36;97022.47;;;9.96;74.71
64876;BME280;51369;49.862;9.908;2022-11-23T12:05:10;97024.13;;;9.98;75.01
64876;BME280;51369;49.862;9.908;2022-11-23T12:10:50;97015.84;;;10.01;75.81
64876;BME280;51369;49.862;9.908;2022-11-23T12:13:20;97012.00;;;10.05;74.84
64876;BME280;51369;49.862;9.908;2022-11-23T12:15:55;97017.28;;;10.07;74.99
64876;BME280;51369;49.862;9.908;2022-11-23T12:21:01;97017.88;;;10.12;75.33
64876;BME280;51369;49.862;9.908;2022-11-23T12:31:50;96999.03;;;10.26;75.11
64876;BME280;51369;49.862;9.908;2022-11-23T12:40:06;96991.66;;;10.42;73.58
64876;BME280;51369;49.862;9.908;2022-11-23T12:42:43;96984.78;;;10.51;74.34
64876;BME280;51369;49.862;9.908;2022-11-23T12:45:28;96982.78;;;10.55;73.24
64876;BME280;51369;49.862;9.908;2022-11-23T12:51:03;96978.09;;;10.71;73.64
64876;BME280;51369;49.862;9.908;2022-11-23T12:53:53;96974.69;;;10.82;73.54
64876;BME280;51369;49.862;9.908;2022-11-23T12:56:48;96971.50;;;10.89;71.83
64876;BME280;51369;49.862;9.908;2022-11-23T12:59:18;96969.91;;;10.99;72.03
64876;BME280;51369;49.862;9.908;2022-11-23T13:01:49;96970.38;;;11.06;71.41
64876;BME280;51369;49.862;9.908;2022-11-23T13:10:01;96954.00;;;11.22;70.83
64876;BME280;51369;49.862;9.908;2022-11-23T13:21:06;96951.13;;;11.37;69.36
64876;BME280;51369;49.862;9.908;2022-11-23T13:23:40;96956.22;;;11.42;70.55
64876;BME280;51369;49.862;9.908;2022-11-23T13:26:29;96951.00;;;11.39;68.17
64876;BME280;51369;49.862;9.908;2022-11-23T13:28:56;96949.19;;;11.39;67.88
64876;BME280;51369;49.862;9.908;2022-11-23T13:31:30;96953.94;;;11.36;66.22
64876;BME280;51369;49.862;9.908;2022-11-23T13:37:00;96950.16;;;11.38;66.67
64876;BME280;51369;49.862;9.908;2022-11-23T13:42:15;96941.50;;;11.33;65.22
64876;BME280;51369;49.862;9.908;2022-11-23T13:44:41;96945.06;;;11.34;65.58
64876;BME280;51369;49.862;9.908;2022-11-23T13:55:05;96926.88;;;11.23;65.73
64876;BME280;51369;49.862;9.908;2022-11-23T13:57:41;96923.41;;;11.21;65.98
64876;BME280;51369;49.862;9.908;2022-11-23T14:00:46;96925.56;;;11.16;66.18
64876;BME280;51369;49.862;9.908;2022-11-23T14:06:26;96923.38;;;11.08;67.33
64876;BME280;51369;49.862;9.908;2022-11-23T14:11:25;96932.00;;;11.01;66.70
64876;BME280;51369;49.862;9.908;2022-11-23T14:13:59;96931.56;;;10.94;66.90
64876;BME280;51369;49.862;9.908;2022-11-23T14:19:32;96939.50;;;10.83;66.51
64876;BME280;51369;49.862;9.908;2022-11-23T14:22:07;96931.59;;;10.80;67.30
64876;BME280;51369;49.862;9.908;2022-11-23T14:30:19;96919.88;;;10.67;66.32
64876;BME280;51369;49.862;9.908;2022-11-23T14:35:29;96919.13;;;10.65;67.55
64876;BME280;51369;49.862;9.908;2022-11-23T14:38:26;96915.66;;;10.63;67.39
64876;BME280;51369;49.862;9.908;2022-11-23T14:41:21;96910.38;;;10.61;66.20
64876;BME280;51369;49.862;9.908;2022-11-23T14:43:48;96911.22;;;10.62;66.86
64876;BME280;51369;49.862;9.908;2022-11-23T14:46:17;96916.94;;;10.57;66.71
64876;BME280;51369;49.862;9.908;2022-11-23T14:48:44;96906.34;;;10.54;66.74
64876;BME280;51369;49.862;9.908;2022-11-23T14:51:17;96901.25;;;10.50;66.99
64876;BME280;51369;49.862;9.908;2022-11-23T14:53:45;96906.84;;;10.47;66.41
64876;BME280;51369;49.862;9.908;2022-11-23T14:56:32;96892.94;;;10.40;66.75
64876;BME280;51369;49.862;9.908;2022-11-23T14:59:02;96890.53;;;10.35;66.54
64876;BME280;51369;49.862;9.908;2022-11-23T15:01:30;96893.63;;;10.29;66.63